Latest Weather Observations for Port Macquarie Airport

IDN60801

Issued at 11:33 pm EST Sunday 26 June 2016 (issued every 30 minutes, with the page automatically refreshed every 10 minutes)

About weather observations | Map of weather stations | Latest weather observations for NSW | Other Formats
Station Details ID: 060139 Name: PORT MACQUARIE AIRPORT AWS Lat: -31.43 Lon: 152.87 Height: 4.2 m
Data from the previous 72 hours. | See also: Recent months at Port Macquarie Airport
Date/Time
EST
Temp
°C
App
Temp
°C
Dew
Point
°C
Rel
Hum
%
Delta-T
°C
Wind Press
QNH
hPa
Press
MSL
hPa
Rain since
9am
mm
Dir  Spd
km/h
Gust
km/h
Spd
kts
Gust
kts
26/11:30pm 8.5 6.6 6.6 88 0.9 NNW 6 9 3 5 1015.8 1015.8 0.0
26/11:00pm 8.5 6.0 6.6 88 0.9 NW 9 11 5 6 1016.9 1016.9 0.0
26/10:30pm 8.4 7.6 6.5 88 0.9 CALM 0 4 0 2 1016.7 1016.7 0.0
26/10:00pm 8.8 6.4 7.1 89 0.8 NW 9 11 5 6 1016.7 1016.7 0.0
26/09:30pm 8.2 6.7 6.7 90 0.7 NW 4 7 2 4 1016.8 1016.8 0.0
26/09:00pm 8.5 6.7 7.0 90 0.7 SSW 6 9 3 5 1016.7 1016.7 0.0
26/08:30pm 8.4 7.7 7.0 91 0.7 CALM 0 0 0 0 1017.0 1017.0 0.0
26/08:00pm 8.4 7.6 6.7 89 0.8 CALM 0 0 0 0 1017.4 1017.4 0.0
26/07:30pm 8.5 7.7 6.6 88 0.9 CALM 0 0 0 0 1017.8 1017.8 0.0
26/07:00pm 9.0 8.3 6.8 86 1.0 CALM 0 0 0 0 1017.6 1017.6 0.0
26/06:30pm 9.3 8.6 6.9 85 1.1 CALM 0 0 0 0 1017.6 1017.6 0.0
26/06:00pm 9.8 9.0 6.7 81 1.4 CALM 0 0 0 0 1017.9 1017.9 0.0
26/05:30pm 10.0 8.9 6.7 80 1.5 WNW 2 6 1 3 1017.6 1017.6 0.0
26/05:00pm 11.2 10.5 6.9 75 2.0 CALM 0 0 0 0 1016.6 1016.6 0.0
26/04:30pm 12.7 11.9 6.3 65 3.0 CALM 0 2 0 1 1017.2 1017.2 0.0
26/04:00pm 13.6 10.9 3.9 52 4.4 NE 7 9 4 5 1017.1 1017.1 0.0
26/03:30pm 13.9 11.2 3.9 51 4.5 NE 7 9 4 5 1017.2 1017.2 0.0
26/03:00pm 14.1 11.0 3.6 49 4.7 ENE 9 11 5 6 1017.3 1017.3 0.0
26/02:30pm 14.4 11.0 3.8 49 4.8 E 11 13 6 7 1017.4 1017.4 0.0
26/02:00pm 15.1 12.3 3.3 45 5.3 NE 7 11 4 6 1017.6 1017.6 0.0
26/01:30pm 15.1 12.0 3.6 46 5.2 ENE 9 13 5 7 1017.8 1017.8 0.0
26/01:00pm 14.6 11.9 2.5 44 5.4 N 6 9 3 5 1018.2 1018.2 0.0
26/12:30pm 15.0 12.2 2.2 42 5.7 NW 6 9 3 5 1018.6 1018.6 0.0
26/12:00pm 14.2 11.4 3.1 47 5.0 NW 7 9 4 5 1019.2 1019.2 0.0
26/11:30am 13.7 11.1 3.2 49 4.7 W 6 9 3 5 1020.0 1020.0 0.0
26/11:00am 12.1 9.5 3.1 54 3.9 WNW 6 11 3 6 1021.0 1021.0 0.0
26/10:30am 10.4 7.1 2.5 58 3.4 WNW 9 11 5 6 1021.2 1021.2 0.0
26/10:00am 9.9 6.1 1.8 57 3.4 WNW 11 17 6 9 1021.2 1021.2 0.0
26/09:30am 9.2 6.2 1.9 60 3.0 WNW 7 11 4 6 1020.9 1020.9 0.0
26/09:00am 8.4 4.4 0.4 57 3.2 WNW 11 17 6 9 1021.1 1021.1 0.0
26/08:30am 7.7 2.9 0.0 58 3.0 WNW 15 20 8 11 1021.1 1021.1 0.0
26/08:00am 6.6 2.2 0.1 63 2.5 WNW 13 19 7 10 1020.7 1020.7 0.0
26/07:30am 6.0 1.5 -0.3 64 2.4 WNW 13 20 7 11 1020.6 1020.6 0.0
26/07:00am 5.9 1.0 -0.4 64 2.4 W 15 22 8 12 1020.5 1020.5 0.0
26/06:30am 5.8 0.5 -0.7 63 2.4 WNW 17 24 9 13 1020.4 1020.4 0.0
26/06:00am 5.8 0.5 -0.5 64 2.4 W 17 24 9 13 1020.2 1020.2 0.0
26/05:30am 5.6 0.7 -0.2 66 2.2 W 15 20 8 11 1019.8 1019.8 0.0
26/05:00am 5.4 0.9 -0.2 67 2.1 W 13 20 7 11 1019.8 1019.8 0.0
26/04:30am 5.6 1.8 -0.4 65 2.3 W 9 15 5 8 1019.5 1019.5 0.0
26/04:00am 6.0 0.7 -0.3 64 2.4 W 17 22 9 12 1019.3 1019.3 0.0
26/03:30am 6.3 0.7 -0.2 63 2.5 W 19 28 10 15 1019.0 1019.0 0.0
26/03:00am 6.3 0.7 -0.2 63 2.5 W 19 24 10 13 1018.9 1018.9 0.0
26/02:30am 6.0 1.2 0.1 66 2.3 W 15 20 8 11 1019.0 1019.0 0.0
26/02:00am 6.3 1.5 0.0 64 2.4 W 15 20 8 11 1018.9 1018.9 0.0
26/01:30am 6.4 1.2 0.1 64 2.4 WNW 17 22 9 12 1019.5 1019.5 0.0
26/01:00am 6.8 1.6 0.0 62 2.6 W 17 22 9 12 1019.8 1019.8 0.0
26/12:30am 7.1 1.5 0.1 61 2.7 W 19 26 10 14 1019.9 1019.9 0.0
26/12:00am 6.7 2.3 0.2 63 2.5 W 13 20 7 11 1020.3 1020.3 0.0
 
Date/Time
EST
Temp
°C
App
Temp
°C
Dew
Point
°C
Rel
Hum
%
Delta-T
°C
Wind Press
QNH
hPa
Press
MSL
hPa
Rain since
9am
mm
Dir  Spd
km/h
Gust
km/h
Spd
kts
Gust
kts
25/11:30pm 6.6 2.2 0.1 63 2.5 W 13 20 7 11 1020.1 1020.1 0.0
25/11:00pm 6.9 2.5 0.4 63 2.5 W 13 19 7 10 1020.1 1020.1 0.0
25/10:30pm 7.1 2.3 0.3 62 2.7 WNW 15 20 8 11 1020.3 1020.3 0.0
25/10:00pm 7.2 2.0 0.4 62 2.7 WNW 17 26 9 14 1020.1 1020.1 0.0
25/09:30pm 7.6 2.9 0.6 61 2.8 W 15 20 8 11 1020.0 1020.0 0.0
25/09:00pm 6.3 2.0 0.8 68 2.2 W 13 15 7 8 1020.1 1020.1 0.0
25/08:30pm 5.3 2.2 0.1 69 2.0 WNW 6 9 3 5 1020.2 1020.2 0.0
25/08:00pm 6.3 3.0 0.4 66 2.3 SW 7 7 4 4 1020.0 1020.0 0.0
25/07:30pm 5.9 2.8 0.3 67 2.2 SSW 6 7 3 4 1019.6 1019.6 0.0
25/07:00pm 6.4 3.3 1.3 70 2.0 SW 7 11 4 6 1019.6 1019.6 0.0
25/06:30pm 6.6 3.1 1.3 69 2.1 SW 9 11 5 6 1019.3 1019.3 0.0
25/06:00pm 6.7 2.9 1.6 70 2.0 SW 11 13 6 7 1018.8 1018.8 0.0
25/05:30pm 7.1 3.2 1.0 65 2.4 S 11 11 6 6 1018.5 1018.5 0.0
25/05:00pm 9.9 6.6 0.3 51 3.9 SSW 7 9 4 5 1018.1 1018.1 0.0
25/04:30pm 11.9 7.9 0.4 45 4.8 SSW 11 13 6 7 1017.8 1017.8 0.0
25/04:00pm 13.6 8.9 -1.9 34 6.2 SSW 13 19 7 10 1017.6 1017.6 0.0
25/03:30pm 14.2 8.2 -1.8 33 6.4 SW 20 26 11 14 1017.2 1017.2 0.0
25/03:00pm 14.7 9.1 -2.7 30 6.9 SW 17 28 9 15 1017.1 1017.1 0.0
25/02:30pm 14.6 8.1 -2.3 31 6.8 SW 22 32 12 17 1016.9 1016.9 0.0
25/02:00pm 14.6 8.2 -1.9 32 6.6 SW 22 32 12 17 1016.7 1016.7 0.0
25/01:30pm 14.9 9.0 -0.8 34 6.5 WSW 20 28 11 15 1016.7 1016.7 0.0
25/01:00pm 14.4 7.6 -1.6 33 6.5 SW 24 35 13 19 1016.7 1016.7 0.0
25/12:30pm 14.3 8.0 -1.3 34 6.4 SW 22 33 12 18 1016.9 1016.9 0.0
25/12:00pm 14.4 8.1 -1.2 34 6.4 SW 22 35 12 19 1017.1 1017.1 0.0
25/11:30am 13.8 6.6 -2.2 33 6.4 SW 26 37 14 20 1017.1 1017.1 0.0
25/11:00am 13.3 4.8 -3.0 32 6.3 WSW 32 43 17 23 1017.1 1017.1 0.0
25/10:30am 13.0 4.9 -3.3 32 6.3 SW 30 41 16 22 1017.4 1017.4 0.0
25/10:00am 12.6 6.8 -1.7 37 5.7 W 19 30 10 16 1017.3 1017.3 0.0
25/09:30am 11.7 6.3 -1.4 40 5.2 W 17 28 9 15 1017.3 1017.3 0.0
25/09:00am 11.1 5.0 -2.0 40 5.1 W 20 33 11 18 1016.9 1016.9 0.0
25/08:30am 10.2 4.4 -1.5 44 4.5 W 19 30 10 16 1016.5 1016.5 0.0
25/08:00am 9.4 3.4 -1.6 46 4.2 W 20 28 11 15 1016.2 1016.2 0.0
25/07:30am 8.5 2.6 -1.9 48 3.9 W 19 26 10 14 1016.0 1016.0 0.0
25/07:00am 8.1 2.1 -1.7 50 3.7 W 20 28 11 15 1015.5 1015.5 0.0
25/06:30am 8.2 2.8 -1.6 50 3.7 WNW 17 24 9 13 1015.4 1015.4 0.0
25/06:00am 8.3 3.3 -1.5 50 3.7 W 15 22 8 12 1015.1 1015.1 0.0
25/05:30am 8.6 2.8 -1.8 48 3.9 W 19 26 10 14 1014.6 1014.6 0.0
25/05:00am 9.0 3.2 -1.7 47 4.1 W 19 33 10 18 1014.1 1014.1 0.0
25/04:30am 9.2 3.4 -1.5 47 4.1 W 19 26 10 14 1014.0 1014.0 0.0
25/04:00am 9.5 3.7 -1.5 46 4.2 W 19 30 10 16 1013.6 1013.6 0.0
25/03:30am 9.9 3.5 -1.8 44 4.5 WNW 22 35 12 19 1013.5 1013.5 0.0
25/03:00am 9.9 3.8 -2.1 43 4.6 W 20 39 11 21 1013.5 1013.5 0.0
25/02:30am 9.9 3.8 -2.1 43 4.6 W 20 33 11 18 1013.0 1013.0 0.0
25/02:00am 10.4 4.0 -1.9 42 4.7 W 22 39 12 21 1012.7 1012.7 0.0
25/01:30am 10.2 4.1 -2.1 42 4.7 W 20 32 11 17 1012.3 1012.3 0.0
25/01:00am 10.9 3.6 -2.5 39 5.1 W 26 43 14 23 1012.1 1012.1 0.0
25/12:30am 10.6 4.5 -2.1 41 4.9 W 20 28 11 15 1012.3 1012.3 0.0
25/12:00am 10.9 4.8 -2.1 40 5.0 W 20 35 11 19 1012.3 1012.3 0.0
 
Date/Time
EST
Temp
°C
App
Temp
°C
Dew
Point
°C
Rel
Hum
%
Delta-T
°C
Wind Press
QNH
hPa
Press
MSL
hPa
Rain since
9am
mm
Dir  Spd
km/h
Gust
km/h
Spd
kts
Gust
kts
24/11:30pm 11.0 5.5 -2.1 40 5.1 W 17 32 9 17 1012.0 1012.0 0.0
24/11:00pm 11.5 5.4 -2.0 39 5.3 WNW 20 35 11 19 1011.9 1011.9 0.0
24/10:30pm 11.3 5.4 -0.8 43 4.8 W 20 32 11 17 1012.2 1012.2 0.0
24/10:00pm 11.4 4.8 -0.1 45 4.7 W 24 35 13 19 1011.7 1011.7 0.0
24/09:30pm 10.9 5.3 1.2 51 4.0 W 20 39 11 21 1011.8 1011.8 0.0
24/09:00pm 11.0 4.0 1.8 53 3.9 W 28 44 15 24 1011.4 1011.4 0.0
24/08:44pm 11.0 4.1 2.3 55 3.7 W 28 46 15 25 1011.5 1011.5 0.0
24/08:30pm 10.8 3.2 2.6 57 3.5 W 32 46 17 25 1011.3 1011.3 0.0
24/08:10pm 11.7 4.8 2.5 53 4.0 W 28 50 15 27 1010.9 1010.9 0.0
24/08:00pm 11.8 6.5 3.1 55 3.8 W 20 30 11 16 1011.0 1011.0 0.0
24/07:30pm 12.3 5.8 2.7 52 4.2 WSW 26 35 14 19 1009.9 1009.9 0.0
24/07:05pm 14.1 6.9 0.7 40 5.7 WSW 28 48 15 26 1009.6 1009.6 0.0
24/07:00pm 14.1 7.3 0.7 40 5.7 W 26 43 14 23 1009.5 1009.5 0.0
24/06:30pm 13.7 8.3 1.4 43 5.3 W 19 30 10 16 1008.6 1008.6 0.0
24/06:00pm 12.7 9.0 2.6 50 4.4 WNW 11 17 6 9 1008.0 1008.0 0.0
24/05:30pm 14.0 8.6 2.3 45 5.1 WNW 20 32 11 17 1007.3 1007.3 0.0
24/05:00pm 14.7 8.1 2.3 43 5.5 W 26 43 14 23 1006.9 1006.9 0.0
24/04:30pm 15.3 7.9 2.1 41 5.8 W 30 56 16 30 1006.5 1006.5 0.0
24/04:00pm 16.1 8.2 2.2 39 6.2 W 33 69 18 37 1006.1 1006.1 0.0
24/03:30pm 17.2 9.4 4.9 44 5.9 WSW 35 54 19 29 1005.5 1005.5 0.0
24/03:29pm 17.4 9.6 4.7 43 6.0 WSW 35 54 19 29 1005.3 1005.3 0.0
24/03:22pm 18.0 10.7 4.6 41 6.4 W 32 48 17 26 1005.1 1005.1 0.0
24/03:00pm 19.5 12.8 3.6 35 7.5 NW 28 50 15 27 1004.2 1004.2 0.0
24/02:35pm 20.1 13.3 3.3 33 7.9 WNW 28 50 15 27 1003.8 1003.8 0.0
24/02:30pm 20.4 15.0 4.4 35 7.7 WNW 22 35 12 19 1003.7 1003.7 0.0
24/02:00pm 20.4 12.9 3.2 32 8.2 NW 32 50 17 27 1003.5 1003.5 0.0
24/01:56pm 20.3 13.2 3.5 33 8.0 NW 30 50 16 27 1003.5 1003.5 0.0
24/01:46pm 20.3 12.2 3.5 33 8.0 NW 35 52 19 28 1003.3 1003.3 0.0
24/01:30pm 20.6 12.5 3.3 32 8.2 WNW 35 59 19 32 1003.4 1003.4 0.0
24/01:20pm 20.7 14.0 3.4 32 8.2 W 28 46 15 25 1003.3 1003.3 0.0
24/01:00pm 21.4 15.4 3.6 31 8.6 WNW 24 39 13 21 1003.3 1003.3 0.0
24/12:30pm 21.5 16.2 6.6 38 7.6 WNW 24 35 13 19 1003.7 1003.7 0.0
24/12:00pm 21.1 17.8 9.4 47 6.3 W 17 32 9 17 1004.1 1004.1 0.0
24/11:30am 20.0 16.6 10.4 54 5.2 WSW 19 28 10 15 1004.7 1004.7 0.0
24/11:00am 18.7 17.8 12.7 68 3.4 W 9 13 5 7 1005.3 1005.3 0.0
24/10:30am 17.4 15.9 11.9 70 3.0 WNW 11 15 6 8 1005.6 1005.6 0.0
24/10:00am 17.1 16.0 12.0 72 2.8 NNW 9 11 5 6 1005.7 1005.7 0.0
24/09:30am 14.9 13.9 10.9 77 2.1 NW 7 15 4 8 1006.1 1006.1 0.0
24/09:00am 13.6 12.6 11.0 84 1.4 NW 7 13 4 7 1006.3 1006.3 0.0
24/08:30am 11.7 10.4 9.9 89 0.9 NNW 7 11 4 6 1006.4 1006.4 0.0
24/08:00am 10.1 8.2 9.0 93 0.5 NW 9 11 5 6 1006.4 1006.4 0.0
24/07:30am 9.3 7.9 8.8 97 0.2 NNW 6 7 3 4 1006.1 1006.1 0.0
24/07:00am 7.2 6.4 6.3 94 0.4 CALM 0 0 0 0 1006.0 1006.0 0.0
24/06:30am 8.1 7.1 7.3 95 0.4 N 2 7 1 4 1006.1 1006.1 0.0
24/06:00am 8.2 7.6 7.3 94 0.4 CALM 0 0 0 0 1006.1 1006.1 0.0
24/05:30am 9.0 7.4 8.2 95 0.4 NNW 6 7 3 4 1005.9 1005.9 0.0
24/05:00am 8.8 6.6 8.0 95 0.4 NW 9 13 5 7 1005.9 1005.9 0.0
24/04:30am 9.5 9.2 8.6 94 0.4 CALM 0 0 0 0 1006.0 1006.0 0.0
24/04:00am 10.0 8.4 8.9 93 0.5 NNW 7 9 4 5 1006.3 1006.3 0.0
24/03:30am 10.5 10.1 9.6 94 0.5 NNW 2 7 1 4 1006.4 1006.4 0.0
24/03:00am 10.7 9.4 10.1 96 0.3 NNW 7 11 4 6 1006.8 1006.8 0.0
24/02:30am 9.5 9.3 9.0 97 0.2 CALM 0 0 0 0 1006.7 1006.7 0.0
24/02:00am 8.5 8.0 7.9 96 0.3 CALM 0 0 0 0 1006.8 1006.8 0.0
24/01:30am 8.5 8.0 7.9 96 0.3 CALM 0 0 0 0 1007.4 1007.4 0.0
24/01:00am 8.4 7.8 7.6 95 0.4 CALM 0 0 0 0 1007.5 1007.5 0.0
24/12:30am 8.6 8.1 8.0 96 0.3 CALM 0 0 0 0 1007.7 1007.7 0.0
24/12:00am 8.2 7.6 7.3 94 0.4 CALM 0 0 0 0 1008.1 1008.1 0.0

Other Formats:

Comma delimited format used in spreadsheet applications
http://www.bom.gov.au/fwo/IDN60801/IDN60801.94786.axf

JavaScript Object Notation format (JSON) in row-major order
http://www.bom.gov.au/fwo/IDN60801/IDN60801.94786.json